sensor_id;sensor_type;location;lat;lon;timestamp;P1;durP1;ratioP1;P2;durP2;ratioP2
76094;SDS011;64821;13.710;100.604;2023-02-18T20:02:23;39.40;;;28.92;;
76094;SDS011;64821;13.710;100.604;2023-02-18T20:03:27;39.93;;;28.87;;
76094;SDS011;64821;13.710;100.604;2023-02-18T20:04:31;37.78;;;28.50;;
76094;SDS011;64821;13.710;100.604;2023-02-18T20:05:35;37.88;;;29.52;;
76094;SDS011;64821;13.710;100.604;2023-02-18T20:06:46;41.88;;;28.98;;
76094;SDS011;64821;13.710;100.604;2023-02-18T20:09:32;37.03;;;28.37;;
76094;SDS011;64821;13.710;100.604;2023-02-18T20:10:36;38.83;;;29.15;;
76094;SDS011;64821;13.710;100.604;2023-02-18T20:11:39;35.63;;;29.00;;
76094;SDS011;64821;13.710;100.604;2023-02-18T20:12:43;38.50;;;28.77;;
76094;SDS011;64821;13.710;100.604;2023-02-18T20:13:47;38.50;;;28.73;;
76094;SDS011;64821;13.710;100.604;2023-02-18T20:15:04;35.13;;;27.87;;
76094;SDS011;64821;13.710;100.604;2023-02-18T20:16:08;35.63;;;28.00;;
76094;SDS011;64821;13.710;100.604;2023-02-18T20:17:12;38.33;;;28.98;;
76094;SDS011;64821;13.710;100.604;2023-02-18T20:18:18;37.42;;;28.45;;
76094;SDS011;64821;13.710;100.604;2023-02-18T20:19:26;39.20;;;29.80;;
76094;SDS011;64821;13.710;100.604;2023-02-18T20:20:33;38.73;;;28.03;;
76094;SDS011;64821;13.710;100.604;2023-02-18T20:21:37;38.25;;;28.70;;
76094;SDS011;64821;13.710;100.604;2023-02-18T20:22:41;37.72;;;28.77;;
76094;SDS011;64821;13.710;100.604;2023-02-18T20:23:44;37.85;;;28.60;;
76094;SDS011;64821;13.710;100.604;2023-02-18T20:24:48;37.03;;;29.45;;
76094;SDS011;64821;13.710;100.604;2023-02-18T20:25:52;39.20;;;29.23;;
76094;SDS011;64821;13.710;100.604;2023-02-18T20:26:55;43.13;;;30.00;;
76094;SDS011;64821;13.710;100.604;2023-02-18T20:28:02;43.35;;;29.98;;
76094;SDS011;64821;13.710;100.604;2023-02-18T20:29:06;38.28;;;29.80;;
76094;SDS011;64821;13.710;100.604;2023-02-18T20:30:10;40.15;;;29.63;;
76094;SDS011;64821;13.710;100.604;2023-02-18T20:31:14;36.13;;;29.63;;
76094;SDS011;64821;13.710;100.604;2023-02-18T20:32:18;38.95;;;30.15;;
76094;SDS011;64821;13.710;100.604;2023-02-18T20:33:23;37.88;;;29.83;;
76094;SDS011;64821;13.710;100.604;2023-02-18T20:34:27;33.63;;;28.00;;
76094;SDS011;64821;13.710;100.604;2023-02-18T20:35:31;35.45;;;28.48;;
76094;SDS011;64821;13.710;100.604;2023-02-18T20:36:35;40.00;;;29.30;;
76094;SDS011;64821;13.710;100.604;2023-02-18T20:37:38;39.55;;;29.30;;
76094;SDS011;64821;13.710;100.604;2023-02-18T20:38:42;41.17;;;30.20;;
76094;SDS011;64821;13.710;100.604;2023-02-18T20:39:46;39.10;;;29.95;;
76094;SDS011;64821;13.710;100.604;2023-02-18T20:40:49;36.65;;;29.08;;
76094;SDS011;64821;13.710;100.604;2023-02-18T20:41:53;38.80;;;29.43;;
76094;SDS011;64821;13.710;100.604;2023-02-18T20:43:00;40.05;;;29.85;;
76094;SDS011;64821;13.710;100.604;2023-02-18T20:44:03;40.83;;;29.55;;
76094;SDS011;64821;13.710;100.604;2023-02-18T20:45:08;38.03;;;29.95;;
76094;SDS011;64821;13.710;100.604;2023-02-18T20:46:13;40.15;;;30.65;;
76094;SDS011;64821;13.710;100.604;2023-02-18T20:47:18;40.60;;;29.80;;
76094;SDS011;64821;13.710;100.604;2023-02-18T20:48:23;38.80;;;29.90;;
76094;SDS011;64821;13.710;100.604;2023-02-18T20:49:26;42.45;;;30.35;;
76094;SDS011;64821;13.710;100.604;2023-02-18T20:50:30;43.33;;;30.05;;
76094;SDS011;64821;13.710;100.604;2023-02-18T20:51:34;42.80;;;30.98;;
76094;SDS011;64821;13.710;100.604;2023-02-18T20:52:38;40.00;;;29.03;;
76094;SDS011;64821;13.710;100.604;2023-02-18T20:53:45;41.85;;;31.38;;
76094;SDS011;64821;13.710;100.604;2023-02-18T20:54:58;38.60;;;29.50;;
76094;SDS011;64821;13.710;100.604;2023-02-18T20:56:02;40.25;;;29.48;;
76094;SDS011;64821;13.710;100.604;2023-02-18T20:57:06;40.13;;;30.38;;
76094;SDS011;64821;13.710;100.604;2023-02-18T20:58:10;42.67;;;30.80;;
76094;SDS011;64821;13.710;100.604;2023-02-18T20:59:14;38.97;;;28.98;;
76094;SDS011;64821;13.710;100.604;2023-02-18T21:00:19;39.30;;;30.77;;
76094;SDS011;64821;13.710;100.604;2023-02-18T21:01:23;40.20;;;30.35;;
76094;SDS011;64821;13.710;100.604;2023-02-18T21:02:26;38.92;;;30.35;;
76094;SDS011;64821;13.710;100.604;2023-02-18T21:03:32;36.83;;;30.57;;
76094;SDS011;64821;13.710;100.604;2023-02-18T21:04:36;40.67;;;30.25;;
76094;SDS011;64821;13.710;100.604;2023-02-18T21:05:39;40.53;;;30.25;;
76094;SDS011;64821;13.710;100.604;2023-02-18T21:06:43;40.90;;;30.88;;
76094;SDS011;64821;13.710;100.604;2023-02-18T21:07:47;38.88;;;30.25;;
76094;SDS011;64821;13.710;100.604;2023-02-18T21:08:51;41.73;;;30.33;;
76094;SDS011;64821;13.710;100.604;2023-02-18T21:09:55;41.72;;;30.52;;
76094;SDS011;64821;13.710;100.604;2023-02-18T21:11:00;44.35;;;31.10;;
76094;SDS011;64821;13.710;100.604;2023-02-18T21:12:06;38.95;;;30.58;;
76094;SDS011;64821;13.710;100.604;2023-02-18T21:13:09;40.47;;;30.63;;
76094;SDS011;64821;13.710;100.604;2023-02-18T21:14:13;40.70;;;30.40;;
76094;SDS011;64821;13.710;100.604;2023-02-18T21:15:17;39.85;;;30.42;;
76094;SDS011;64821;13.710;100.604;2023-02-18T21:16:22;39.30;;;31.38;;
76094;SDS011;64821;13.710;100.604;2023-02-18T21:17:26;38.97;;;29.60;;
76094;SDS011;64821;13.710;100.604;2023-02-18T21:18:30;43.67;;;30.42;;
76094;SDS011;64821;13.710;100.604;2023-02-18T21:19:35;39.70;;;29.87;;
76094;SDS011;64821;13.710;100.604;2023-02-18T21:21:23;41.72;;;30.08;;
76094;SDS011;64821;13.710;100.604;2023-02-18T21:22:24;40.88;;;29.55;;
76094;SDS011;64821;13.710;100.604;2023-02-18T21:23:28;39.13;;;30.33;;
76094;SDS011;64821;13.710;100.604;2023-02-18T21:24:32;41.53;;;29.55;;
76094;SDS011;64821;13.710;100.604;2023-02-18T21:25:36;38.33;;;30.60;;
76094;SDS011;64821;13.710;100.604;2023-02-18T21:26:40;39.25;;;28.35;;
76094;SDS011;64821;13.710;100.604;2023-02-18T21:27:44;40.60;;;29.95;;
76094;SDS011;64821;13.710;100.604;2023-02-18T21:28:48;39.08;;;30.30;;
76094;SDS011;64821;13.710;100.604;2023-02-18T21:29:53;41.85;;;30.50;;
76094;SDS011;64821;13.710;100.604;2023-02-18T21:30:59;41.47;;;31.20;;
76094;SDS011;64821;13.710;100.604;2023-02-18T21:32:04;42.17;;;30.33;;
76094;SDS011;64821;13.710;100.604;2023-02-18T21:33:08;43.05;;;31.10;;
76094;SDS011;64821;13.710;100.604;2023-02-18T21:34:15;39.50;;;29.80;;
76094;SDS011;64821;13.710;100.604;2023-02-18T21:35:18;36.08;;;30.23;;
76094;SDS011;64821;13.710;100.604;2023-02-18T21:36:22;42.63;;;30.90;;
76094;SDS011;64821;13.710;100.604;2023-02-18T21:37:27;39.42;;;30.98;;
76094;SDS011;64821;13.710;100.604;2023-02-18T21:38:31;37.28;;;30.60;;
76094;SDS011;64821;13.710;100.604;2023-02-18T21:39:34;39.40;;;30.38;;
76094;SDS011;64821;13.710;100.604;2023-02-18T21:40:38;37.13;;;30.17;;
76094;SDS011;64821;13.710;100.604;2023-02-18T21:41:42;38.50;;;30.07;;
76094;SDS011;64821;13.710;100.604;2023-02-18T21:42:46;37.50;;;29.38;;
76094;SDS011;64821;13.710;100.604;2023-02-18T21:43:50;39.47;;;30.83;;
76094;SDS011;64821;13.710;100.604;2023-02-18T21:44:54;38.50;;;29.90;;
76094;SDS011;64821;13.710;100.604;2023-02-18T21:46:04;39.55;;;30.08;;
76094;SDS011;64821;13.710;100.604;2023-02-18T21:47:09;36.63;;;29.83;;
76094;SDS011;64821;13.710;100.604;2023-02-18T21:48:13;38.33;;;30.20;;
76094;SDS011;64821;13.710;100.604;2023-02-18T21:49:18;39.30;;;30.38;;
76094;SDS011;64821;13.710;100.604;2023-02-18T21:50:22;38.58;;;29.85;;
76094;SDS011;64821;13.710;100.604;2023-02-18T21:51:26;38.80;;;29.65;;
76094;SDS011;64821;13.710;100.604;2023-02-18T21:52:30;40.03;;;30.70;;
76094;SDS011;64821;13.710;100.604;2023-02-18T21:53:34;41.38;;;30.42;;
76094;SDS011;64821;13.710;100.604;2023-02-18T21:54:38;39.17;;;30.48;;
76094;SDS011;64821;13.710;100.604;2023-02-18T21:55:42;41.03;;;31.23;;
76094;SDS011;64821;13.710;100.604;2023-02-18T21:57:03;39.17;;;30.45;;
76094;SDS011;64821;13.710;100.604;2023-02-18T21:58:07;40.23;;;29.67;;
76094;SDS011;64821;13.710;100.604;2023-02-18T21:59:11;39.90;;;31.15;;
76094;SDS011;64821;13.710;100.604;2023-02-18T22:00:15;40.65;;;30.73;;
76094;SDS011;64821;13.710;100.604;2023-02-18T22:01:22;39.28;;;31.55;;
76094;SDS011;64821;13.710;100.604;2023-02-18T22:02:29;40.13;;;30.35;;
76094;SDS011;64821;13.710;100.604;2023-02-18T22:03:34;39.40;;;30.10;;
76094;SDS011;64821;13.710;100.604;2023-02-18T22:04:39;36.28;;;30.98;;
76094;SDS011;64821;13.710;100.604;2023-02-18T22:05:43;39.38;;;30.17;;
76094;SDS011;64821;13.710;100.604;2023-02-18T22:06:46;38.55;;;29.05;;
76094;SDS011;64821;13.710;100.604;2023-02-18T22:07:50;38.53;;;29.55;;
76094;SDS011;64821;13.710;100.604;2023-02-18T22:08:54;39.97;;;30.33;;
76094;SDS011;64821;13.710;100.604;2023-02-18T22:09:57;38.30;;;30.50;;
76094;SDS011;64821;13.710;100.604;2023-02-18T22:11:02;40.42;;;30.50;;
76094;SDS011;64821;13.710;100.604;2023-02-18T22:12:06;42.03;;;30.83;;
76094;SDS011;64821;13.710;100.604;2023-02-18T22:13:11;41.63;;;29.90;;
76094;SDS011;64821;13.710;100.604;2023-02-18T22:14:14;42.77;;;29.23;;
76094;SDS011;64821;13.710;100.604;2023-02-18T22:15:19;39.97;;;29.40;;
76094;SDS011;64821;13.710;100.604;2023-02-18T22:16:22;41.78;;;30.90;;
76094;SDS011;64821;13.710;100.604;2023-02-18T22:17:26;40.42;;;30.17;;
76094;SDS011;64821;13.710;100.604;2023-02-18T22:18:30;43.97;;;30.00;;
76094;SDS011;64821;13.710;100.604;2023-02-18T22:19:34;40.50;;;29.67;;
76094;SDS011;64821;13.710;100.604;2023-02-18T22:20:39;42.30;;;29.30;;
76094;SDS011;64821;13.710;100.604;2023-02-18T22:21:43;46.00;;;31.13;;
76094;SDS011;64821;13.710;100.604;2023-02-18T22:22:47;39.08;;;29.02;;
76094;SDS011;64821;13.710;100.604;2023-02-18T22:23:51;38.78;;;30.17;;
76094;SDS011;64821;13.710;100.604;2023-02-18T22:24:54;43.27;;;29.73;;
76094;SDS011;64821;13.710;100.604;2023-02-18T22:26:01;40.85;;;30.10;;
76094;SDS011;64821;13.710;100.604;2023-02-18T22:27:05;39.00;;;30.30;;
76094;SDS011;64821;13.710;100.604;2023-02-18T22:28:09;40.80;;;29.52;;
76094;SDS011;64821;13.710;100.604;2023-02-18T22:29:13;38.85;;;31.15;;
76094;SDS011;64821;13.710;100.604;2023-02-18T22:30:18;40.00;;;30.97;;
76094;SDS011;64821;13.710;100.604;2023-02-18T22:31:22;42.72;;;31.10;;
76094;SDS011;64821;13.710;100.604;2023-02-18T22:32:26;39.95;;;30.55;;
76094;SDS011;64821;13.710;100.604;2023-02-18T22:33:30;39.92;;;30.10;;
76094;SDS011;64821;13.710;100.604;2023-02-18T22:34:34;38.83;;;29.95;;
76094;SDS011;64821;13.710;100.604;2023-02-18T22:35:39;35.73;;;29.90;;
76094;SDS011;64821;13.710;100.604;2023-02-18T22:36:43;41.15;;;31.13;;
76094;SDS011;64821;13.710;100.604;2023-02-18T22:37:46;41.55;;;31.00;;
76094;SDS011;64821;13.710;100.604;2023-02-18T22:38:50;40.17;;;30.10;;
76094;SDS011;64821;13.710;100.604;2023-02-18T22:39:54;41.83;;;31.65;;
76094;SDS011;64821;13.710;100.604;2023-02-18T22:41:01;39.33;;;30.37;;
76094;SDS011;64821;13.710;100.604;2023-02-18T22:42:06;41.10;;;29.92;;
76094;SDS011;64821;13.710;100.604;2023-02-18T22:43:09;38.88;;;29.73;;
76094;SDS011;64821;13.710;100.604;2023-02-18T22:44:14;38.90;;;29.55;;
76094;SDS011;64821;13.710;100.604;2023-02-18T22:45:18;42.33;;;30.30;;
76094;SDS011;64821;13.710;100.604;2023-02-18T22:46:22;41.23;;;30.10;;
76094;SDS011;64821;13.710;100.604;2023-02-18T22:47:26;40.00;;;30.55;;
76094;SDS011;64821;13.710;100.604;2023-02-18T22:48:30;39.58;;;30.13;;
76094;SDS011;64821;13.710;100.604;2023-02-18T22:49:35;42.08;;;31.60;;
76094;SDS011;64821;13.710;100.604;2023-02-18T22:50:40;42.13;;;32.05;;
76094;SDS011;64821;13.710;100.604;2023-02-18T22:51:43;40.63;;;30.93;;
76094;SDS011;64821;13.710;100.604;2023-02-18T22:52:47;43.33;;;31.75;;
76094;SDS011;64821;13.710;100.604;2023-02-18T22:53:51;42.55;;;30.90;;
76094;SDS011;64821;13.710;100.604;2023-02-18T22:54:56;41.15;;;32.10;;
76094;SDS011;64821;13.710;100.604;2023-02-18T22:56:00;44.35;;;33.13;;
76094;SDS011;64821;13.710;100.604;2023-02-18T22:57:06;40.23;;;32.20;;
76094;SDS011;64821;13.710;100.604;2023-02-18T22:58:10;40.63;;;32.10;;
76094;SDS011;64821;13.710;100.604;2023-02-18T22:59:14;42.10;;;31.23;;
76094;SDS011;64821;13.710;100.604;2023-02-18T23:00:22;46.63;;;32.65;;
76094;SDS011;64821;13.710;100.604;2023-02-18T23:01:27;42.15;;;30.40;;
76094;SDS011;64821;13.710;100.604;2023-02-18T23:02:32;45.10;;;32.43;;
76094;SDS011;64821;13.710;100.604;2023-02-18T23:03:36;42.00;;;31.83;;
76094;SDS011;64821;13.710;100.604;2023-02-18T23:04:39;41.20;;;31.30;;
76094;SDS011;64821;13.710;100.604;2023-02-18T23:05:45;42.83;;;32.17;;
76094;SDS011;64821;13.710;100.604;2023-02-18T23:06:48;41.88;;;30.92;;
76094;SDS011;64821;13.710;100.604;2023-02-18T23:07:53;41.93;;;31.13;;
76094;SDS011;64821;13.710;100.604;2023-02-18T23:08:56;41.13;;;31.33;;
76094;SDS011;64821;13.710;100.604;2023-02-18T23:10:00;40.70;;;30.88;;
76094;SDS011;64821;13.710;100.604;2023-02-18T23:11:04;37.83;;;30.50;;
76094;SDS011;64821;13.710;100.604;2023-02-18T23:12:10;39.50;;;30.73;;
76094;SDS011;64821;13.710;100.604;2023-02-18T23:13:14;42.07;;;31.07;;
76094;SDS011;64821;13.710;100.604;2023-02-18T23:14:17;39.47;;;31.05;;
76094;SDS011;64821;13.710;100.604;2023-02-18T23:15:22;44.38;;;33.78;;
76094;SDS011;64821;13.710;100.604;2023-02-18T23:16:25;40.13;;;30.35;;
76094;SDS011;64821;13.710;100.604;2023-02-18T23:17:29;38.28;;;29.63;;
76094;SDS011;64821;13.710;100.604;2023-02-18T23:18:33;39.93;;;29.87;;
76094;SDS011;64821;13.710;100.604;2023-02-18T23:19:37;41.38;;;31.15;;
76094;SDS011;64821;13.710;100.604;2023-02-18T23:20:42;40.08;;;31.48;;
76094;SDS011;64821;13.710;100.604;2023-02-18T23:21:47;40.45;;;29.88;;
76094;SDS011;64821;13.710;100.604;2023-02-18T23:22:51;40.15;;;30.48;;
76094;SDS011;64821;13.710;100.604;2023-02-18T23:23:55;37.83;;;28.97;;
76094;SDS011;64821;13.710;100.604;2023-02-18T23:24:58;38.28;;;29.95;;
76094;SDS011;64821;13.710;100.604;2023-02-18T23:26:03;37.67;;;28.85;;
76094;SDS011;64821;13.710;100.604;2023-02-18T23:27:07;38.53;;;29.08;;
76094;SDS011;64821;13.710;100.604;2023-02-18T23:28:11;38.63;;;29.65;;
76094;SDS011;64821;13.710;100.604;2023-02-18T23:29:15;40.37;;;30.17;;
76094;SDS011;64821;13.710;100.604;2023-02-18T23:30:19;37.95;;;27.80;;
76094;SDS011;64821;13.710;100.604;2023-02-18T23:31:23;40.25;;;29.85;;
76094;SDS011;64821;13.710;100.604;2023-02-18T23:32:29;38.35;;;29.15;;
76094;SDS011;64821;13.710;100.604;2023-02-18T23:33:32;38.03;;;28.50;;
76094;SDS011;64821;13.710;100.604;2023-02-18T23:34:36;36.20;;;28.40;;
76094;SDS011;64821;13.710;100.604;2023-02-18T23:35:40;37.10;;;29.08;;
76094;SDS011;64821;13.710;100.604;2023-02-18T23:36:43;41.88;;;29.67;;
76094;SDS011;64821;13.710;100.604;2023-02-18T23:37:49;42.28;;;29.40;;
76094;SDS011;64821;13.710;100.604;2023-02-18T23:38:53;38.05;;;28.80;;
76094;SDS011;64821;13.710;100.604;2023-02-18T23:39:57;38.70;;;29.27;;
76094;SDS011;64821;13.710;100.604;2023-02-18T23:41:01;36.45;;;27.48;;
76094;SDS011;64821;13.710;100.604;2023-02-18T23:42:05;37.30;;;28.63;;
76094;SDS011;64821;13.710;100.604;2023-02-18T23:43:08;40.85;;;29.02;;
76094;SDS011;64821;13.710;100.604;2023-02-18T23:44:13;36.65;;;28.33;;
76094;SDS011;64821;13.710;100.604;2023-02-18T23:45:18;36.67;;;28.57;;
76094;SDS011;64821;13.710;100.604;2023-02-18T23:46:22;37.53;;;27.38;;
76094;SDS011;64821;13.710;100.604;2023-02-18T23:47:27;34.95;;;27.55;;
76094;SDS011;64821;13.710;100.604;2023-02-18T23:48:32;35.10;;;27.23;;
76094;SDS011;64821;13.710;100.604;2023-02-18T23:49:39;37.45;;;29.63;;
76094;SDS011;64821;13.710;100.604;2023-02-18T23:50:42;37.60;;;27.90;;
76094;SDS011;64821;13.710;100.604;2023-02-18T23:51:46;37.55;;;28.15;;
76094;SDS011;64821;13.710;100.604;2023-02-18T23:52:52;38.28;;;27.50;;
76094;SDS011;64821;13.710;100.604;2023-02-18T23:53:55;39.28;;;28.17;;
76094;SDS011;64821;13.710;100.604;2023-02-18T23:54:59;40.38;;;29.45;;
76094;SDS011;64821;13.710;100.604;2023-02-18T23:56:04;35.60;;;27.50;;
76094;SDS011;64821;13.710;100.604;2023-02-18T23:57:11;34.67;;;26.92;;
76094;SDS011;64821;13.710;100.604;2023-02-18T23:58:14;38.45;;;28.27;;
76094;SDS011;64821;13.710;100.604;2023-02-18T23:59:18;37.90;;;27.92;;
